createdAt,value
2023-01-06T00:01:05.178Z,1.20
2023-01-06T00:03:33.790Z,1.20
2023-01-06T00:06:04.667Z,1.50
2023-01-06T00:08:33.497Z,1.30
2023-01-06T00:11:06.128Z,1.20
2023-01-06T00:13:36.123Z,1.27
2023-01-06T00:16:05.996Z,1.30
2023-01-06T00:18:34.615Z,1.20
2023-01-06T00:21:03.410Z,1.40
2023-01-06T00:23:32.462Z,1.30
2023-01-06T00:26:00.990Z,1.20
2023-01-06T00:28:29.908Z,1.30
2023-01-06T00:30:59.802Z,1.70
2023-01-06T00:33:28.328Z,1.30
2023-01-06T00:36:00.285Z,1.20
2023-01-06T00:38:28.941Z,1.40
2023-01-06T00:40:57.515Z,1.20
2023-01-06T00:43:27.583Z,1.37
2023-01-06T00:45:56.193Z,1.50
2023-01-06T00:48:26.084Z,1.10
2023-01-06T00:51:01.523Z,1.43
2023-01-06T00:53:30.101Z,1.40
2023-01-06T00:56:01.516Z,1.17
2023-01-06T00:58:31.581Z,1.50
2023-01-06T01:01:00.221Z,1.40
2023-01-06T01:03:30.136Z,1.33
2023-01-06T01:06:00.541Z,1.40
2023-01-06T01:08:29.475Z,1.40
2023-01-06T01:10:58.464Z,1.53
2023-01-06T01:13:26.968Z,1.20
2023-01-06T01:15:55.525Z,1.00
2023-01-06T01:18:24.179Z,1.37
2023-01-06T01:20:54.097Z,1.33
2023-01-06T01:23:22.745Z,1.20
2023-01-06T01:25:51.306Z,1.13
2023-01-06T01:28:19.877Z,1.40
2023-01-06T01:30:48.464Z,1.20
2023-01-06T01:33:16.994Z,1.30
2023-01-06T01:35:45.590Z,1.30
2023-01-06T01:38:15.516Z,1.27
2023-01-06T01:40:48.486Z,1.00
2023-01-06T01:43:17.311Z,1.00
2023-01-06T01:45:48.693Z,1.40
2023-01-06T01:48:19.519Z,1.30
2023-01-06T01:50:50.040Z,1.10
2023-01-06T01:53:22.774Z,1.20
2023-01-06T01:55:52.356Z,1.23
2023-01-06T01:58:22.347Z,1.23
2023-01-06T02:00:52.802Z,1.03
2023-01-06T02:03:22.370Z,1.20
2023-01-06T02:05:52.907Z,1.47
2023-01-06T02:08:28.428Z,1.33
2023-01-06T02:10:56.979Z,1.03
2023-01-06T02:13:25.581Z,1.10
2023-01-06T02:15:56.083Z,1.00
2023-01-06T02:18:31.238Z,1.30
2023-01-06T02:21:14.687Z,1.33
2023-01-06T02:24:05.878Z,1.27
2023-01-06T02:26:52.308Z,1.27
2023-01-06T02:29:38.521Z,1.17
2023-01-06T02:32:14.465Z,1.30
2023-01-06T02:34:48.028Z,1.47
2023-01-06T02:37:23.588Z,1.10
2023-01-06T02:39:57.203Z,1.20
2023-01-06T02:42:30.513Z,1.17
2023-01-06T02:45:04.299Z,1.40
2023-01-06T02:47:36.164Z,1.70
2023-01-06T02:50:11.066Z,1.27
2023-01-06T02:52:44.830Z,1.00
2023-01-06T02:55:17.902Z,1.00
2023-01-06T02:57:51.109Z,1.20
2023-01-06T03:00:23.582Z,1.50
2023-01-06T03:02:57.616Z,1.30
2023-01-06T03:05:27.443Z,1.00
2023-01-06T03:07:56.968Z,0.90
2023-01-06T03:10:26.299Z,1.27
2023-01-06T03:12:56.183Z,1.30
2023-01-06T03:15:25.406Z,1.00
2023-01-06T03:17:55.473Z,1.10
2023-01-06T03:20:24.073Z,1.10
2023-01-06T03:22:52.609Z,1.00
2023-01-06T03:25:21.172Z,1.27
2023-01-06T03:27:49.750Z,1.07
2023-01-06T03:30:18.627Z,1.07
2023-01-06T03:32:50.657Z,1.10
2023-01-06T03:35:29.724Z,0.90
2023-01-06T03:38:02.869Z,1.10
2023-01-06T03:40:34.236Z,1.07
2023-01-06T03:43:11.599Z,1.03
2023-01-06T03:45:43.915Z,1.33
2023-01-06T03:48:15.436Z,1.10
2023-01-06T03:50:48.773Z,0.80
2023-01-06T03:53:21.110Z,0.90
2023-01-06T03:55:53.387Z,1.10
2023-01-06T03:58:22.110Z,1.00
2023-01-06T04:00:51.205Z,0.90
2023-01-06T04:03:19.814Z,1.00
2023-01-06T04:05:49.725Z,0.90
2023-01-06T04:08:18.282Z,0.80
2023-01-06T04:10:46.855Z,1.10
2023-01-06T04:13:14.430Z,1.10
2023-01-06T04:15:43.335Z,0.90
2023-01-06T04:18:12.027Z,0.87
2023-01-06T04:20:40.607Z,0.90
2023-01-06T04:23:10.474Z,0.80
2023-01-06T04:25:39.101Z,0.90
2023-01-06T04:28:07.712Z,0.90
2023-01-06T04:30:36.273Z,0.97
2023-01-06T04:33:04.913Z,0.77
2023-01-06T04:35:33.484Z,0.90
2023-01-06T04:38:03.107Z,1.10
2023-01-06T04:40:32.967Z,0.70
2023-01-06T04:43:07.714Z,1.00
2023-01-06T04:45:37.074Z,0.80
2023-01-06T04:48:05.878Z,0.80
2023-01-06T04:50:34.830Z,0.93
2023-01-06T04:53:03.490Z,0.93
2023-01-06T04:55:33.409Z,0.73
2023-01-06T04:58:01.980Z,0.73
2023-01-06T05:00:30.605Z,0.87
2023-01-06T05:02:59.167Z,0.80
2023-01-06T05:05:27.759Z,0.87
2023-01-06T05:07:56.675Z,0.80
2023-01-06T05:10:25.225Z,0.70
2023-01-06T05:12:55.073Z,0.77
2023-01-06T05:15:23.683Z,1.00
2023-01-06T05:17:52.269Z,0.80
2023-01-06T05:20:20.900Z,1.10
2023-01-06T05:22:49.409Z,0.73
2023-01-06T05:25:17.994Z,0.70
2023-01-06T05:27:46.593Z,1.00
2023-01-06T05:30:16.619Z,0.90
2023-01-06T05:32:45.256Z,1.00
2023-01-06T05:35:13.811Z,0.97
2023-01-06T05:37:42.349Z,0.97
2023-01-06T05:40:11.621Z,0.77
2023-01-06T05:42:40.216Z,0.73
2023-01-06T05:45:09.426Z,0.90
2023-01-06T05:47:39.340Z,0.90
2023-01-06T05:50:08.475Z,0.90
2023-01-06T05:52:37.150Z,0.80
2023-01-06T05:55:06.115Z,1.00
2023-01-06T05:57:34.810Z,0.90
2023-01-06T06:00:03.686Z,1.10
2023-01-06T06:02:32.427Z,0.87
2023-01-06T06:05:02.360Z,1.00
2023-01-06T06:07:30.925Z,0.90
2023-01-06T06:09:59.499Z,0.90
2023-01-06T06:12:28.099Z,0.97
2023-01-06T06:14:56.766Z,0.70
2023-01-06T06:17:25.415Z,1.10
2023-01-06T06:19:54.224Z,0.70
2023-01-06T06:22:24.195Z,1.00
2023-01-06T06:24:52.714Z,0.97
2023-01-06T06:27:21.281Z,1.00
2023-01-06T06:29:49.837Z,0.80
2023-01-06T06:32:18.351Z,0.90
2023-01-06T06:34:46.895Z,0.70
2023-01-06T06:37:15.478Z,0.80
2023-01-06T06:39:45.465Z,0.90
2023-01-06T06:42:14.104Z,0.90
2023-01-06T06:44:42.689Z,0.80
2023-01-06T06:47:11.281Z,0.60
2023-01-06T06:49:39.817Z,0.90
2023-01-06T06:52:08.419Z,0.90
2023-01-06T06:54:37.088Z,0.70
2023-01-06T06:57:07.043Z,0.70
2023-01-06T06:59:35.593Z,0.67
2023-01-06T07:02:04.450Z,0.70
2023-01-06T07:04:33.170Z,0.80
2023-01-06T07:07:01.704Z,0.70
2023-01-06T07:09:30.363Z,0.70
2023-01-06T07:11:58.971Z,0.63
2023-01-06T07:14:28.900Z,0.60
2023-01-06T07:16:57.493Z,0.70
2023-01-06T07:19:26.025Z,0.67
2023-01-06T07:21:54.564Z,0.60
2023-01-06T07:24:23.143Z,0.80
2023-01-06T07:26:51.685Z,0.63
2023-01-06T07:29:20.276Z,0.60
2023-01-06T07:31:50.216Z,0.67
2023-01-06T07:34:18.731Z,0.57
2023-01-06T07:36:47.328Z,0.67
2023-01-06T07:39:15.941Z,0.77
2023-01-06T07:41:44.552Z,0.83
2023-01-06T07:44:13.208Z,0.60
2023-01-06T07:46:41.724Z,0.70
2023-01-06T07:49:11.622Z,0.60
2023-01-06T07:51:40.185Z,0.60
2023-01-06T07:54:09.110Z,0.40
2023-01-06T07:56:37.683Z,0.80
2023-01-06T07:59:06.233Z,0.50
2023-01-06T08:01:34.926Z,0.50
2023-01-06T08:04:03.603Z,0.60
2023-01-06T08:06:33.677Z,0.50
2023-01-06T08:09:03.418Z,0.70
2023-01-06T08:11:31.983Z,0.60
2023-01-06T08:14:00.582Z,0.50
2023-01-06T08:16:29.257Z,0.53
2023-01-06T08:18:57.830Z,0.40
2023-01-06T08:21:26.381Z,0.60
2023-01-06T08:23:56.237Z,0.50
2023-01-06T08:26:24.865Z,0.50
2023-01-06T08:28:55.116Z,0.57
2023-01-06T08:31:24.105Z,0.50
2023-01-06T08:33:53.542Z,0.37
2023-01-06T08:36:23.549Z,0.60
2023-01-06T08:38:52.691Z,0.40
2023-01-06T08:41:22.985Z,0.50
2023-01-06T08:43:52.542Z,0.50
2023-01-06T08:46:21.647Z,0.50
2023-01-06T08:48:50.339Z,0.50
2023-01-06T08:51:20.613Z,0.60
2023-01-06T08:53:49.596Z,0.30
2023-01-06T08:56:19.213Z,0.60
2023-01-06T08:58:52.095Z,0.30
2023-01-06T09:01:21.515Z,0.50
2023-01-06T09:03:50.463Z,0.50
2023-01-06T09:06:19.240Z,0.50
2023-01-06T09:08:48.577Z,0.50
2023-01-06T09:11:17.941Z,0.50
2023-01-06T09:13:46.971Z,0.40
2023-01-06T09:16:16.883Z,0.40
2023-01-06T09:18:49.593Z,0.40
2023-01-06T09:21:18.751Z,0.47
2023-01-06T09:23:47.828Z,0.40
2023-01-06T09:26:16.815Z,0.50
2023-01-06T09:28:45.537Z,0.60
2023-01-06T09:31:14.197Z,0.60
2023-01-06T09:33:44.194Z,0.40
2023-01-06T09:36:12.787Z,0.50
2023-01-06T09:38:41.416Z,0.60
2023-01-06T09:41:29.134Z,1.33
2023-01-06T09:44:01.521Z,0.50
2023-01-06T09:46:32.253Z,0.40
2023-01-06T09:49:05.337Z,0.50
2023-01-06T09:51:34.690Z,0.50
2023-01-06T09:54:14.399Z,0.60
2023-01-06T09:56:44.352Z,0.50
2023-01-06T09:59:16.890Z,0.90
2023-01-06T10:01:48.468Z,0.67
2023-01-06T10:04:19.601Z,0.50
2023-01-06T10:06:54.792Z,0.50
2023-01-06T10:09:25.851Z,0.60
2023-01-06T10:11:59.711Z,0.57
2023-01-06T10:14:33.570Z,0.50
2023-01-06T10:17:09.108Z,0.50
2023-01-06T10:19:46.626Z,0.50
2023-01-06T10:22:19.991Z,0.40
2023-01-06T10:24:55.046Z,0.70
2023-01-06T10:27:27.713Z,0.70
2023-01-06T10:29:57.354Z,0.67
2023-01-06T10:32:26.806Z,0.73
2023-01-06T10:34:57.616Z,0.50
2023-01-06T10:37:27.674Z,0.70
2023-01-06T10:40:00.935Z,0.70
2023-01-06T10:42:51.563Z,0.70
2023-01-06T10:45:21.721Z,0.90
2023-01-06T10:47:52.209Z,0.80
2023-01-06T10:50:22.226Z,0.70
2023-01-06T10:52:50.770Z,0.80
2023-01-06T10:55:29.752Z,0.60
2023-01-06T10:58:01.718Z,1.00
2023-01-06T11:00:32.132Z,0.90
2023-01-06T11:03:19.472Z,0.50
2023-01-06T11:06:03.563Z,0.70
2023-01-06T11:08:32.563Z,0.80
2023-01-06T11:11:02.030Z,0.70
2023-01-06T11:13:34.360Z,0.50
2023-01-06T11:16:03.975Z,0.53
2023-01-06T11:18:33.680Z,0.70
2023-01-06T11:21:05.501Z,0.80
2023-01-06T11:23:34.577Z,0.73
2023-01-06T11:26:05.049Z,0.60
2023-01-06T11:28:33.872Z,0.80
2023-01-06T11:31:04.188Z,0.73
2023-01-06T11:33:34.057Z,0.50
2023-01-06T11:36:10.438Z,0.80
2023-01-06T11:38:43.653Z,0.70
2023-01-06T11:41:12.864Z,0.60
2023-01-06T11:43:45.078Z,0.70
2023-01-06T11:46:15.316Z,0.70
2023-01-06T11:48:45.610Z,0.80
2023-01-06T11:51:15.568Z,0.60
2023-01-06T11:53:57.403Z,0.60
2023-01-06T11:56:26.176Z,0.77
2023-01-06T11:58:58.682Z,0.70
2023-01-06T12:01:29.553Z,0.60
2023-01-06T12:04:03.034Z,0.60
2023-01-06T12:06:35.526Z,0.70
2023-01-06T12:09:09.381Z,0.70
2023-01-06T12:11:44.262Z,0.67
2023-01-06T12:14:27.304Z,0.80
2023-01-06T12:17:00.730Z,0.80
2023-01-06T12:19:33.197Z,0.80
2023-01-06T12:22:03.497Z,0.80
2023-01-06T12:24:33.223Z,0.70
2023-01-06T12:27:03.454Z,0.80
2023-01-06T12:29:32.361Z,0.70
2023-01-06T12:32:04.393Z,0.80
2023-01-06T12:34:36.557Z,0.70
2023-01-06T12:37:19.387Z,0.80
2023-01-06T12:39:51.336Z,0.60
2023-01-06T12:42:24.904Z,0.70
2023-01-06T12:44:56.282Z,0.60
2023-01-06T12:47:26.875Z,0.70
2023-01-06T12:49:57.183Z,0.70
2023-01-06T12:52:29.960Z,0.70
2023-01-06T12:54:59.617Z,0.60
2023-01-06T12:57:45.400Z,0.80
2023-01-06T13:00:23.245Z,0.80
2023-01-06T13:02:58.619Z,0.77
2023-01-06T13:05:35.393Z,0.90
2023-01-06T13:08:12.430Z,0.70
2023-01-06T13:10:43.541Z,0.70
2023-01-06T13:13:32.780Z,0.50
2023-01-06T13:16:04.292Z,0.80
2023-01-06T13:18:35.820Z,0.70
2023-01-06T13:21:07.262Z,0.80
2023-01-06T13:23:53.539Z,0.77
2023-01-06T13:26:46.106Z,0.63
2023-01-06T13:29:21.037Z,0.80
2023-01-06T13:31:58.184Z,0.63
2023-01-06T13:34:36.347Z,1.07
2023-01-06T13:37:19.956Z,0.60
2023-01-06T13:39:49.771Z,0.80
2023-01-06T13:42:21.383Z,0.60
2023-01-06T13:44:51.521Z,0.67
2023-01-06T13:47:21.273Z,0.70
2023-01-06T13:49:49.841Z,0.80
2023-01-06T13:52:20.352Z,0.67
2023-01-06T13:55:03.286Z,0.93
2023-01-06T13:57:36.555Z,1.00
2023-01-06T14:00:24.890Z,0.97
2023-01-06T14:03:17.150Z,0.90
2023-01-06T14:05:58.443Z,0.80
2023-01-06T14:08:32.207Z,0.60
2023-01-06T14:11:02.901Z,0.77
2023-01-06T14:13:33.341Z,0.80
2023-01-06T14:16:05.644Z,0.70
2023-01-06T14:18:36.846Z,0.70
2023-01-06T14:21:06.690Z,0.80
2023-01-06T14:23:36.348Z,0.70
2023-01-06T14:26:05.296Z,0.70
2023-01-06T14:28:35.912Z,0.80
2023-01-06T14:31:23.036Z,0.70
2023-01-06T14:33:55.119Z,0.53
2023-01-06T14:36:24.309Z,0.70
2023-01-06T14:38:54.642Z,0.70
2023-01-06T14:41:26.166Z,0.77
2023-01-06T14:43:56.272Z,0.70
2023-01-06T14:46:27.113Z,0.80
2023-01-06T14:48:59.580Z,0.90
2023-01-06T14:51:28.702Z,0.90
2023-01-06T14:53:59.216Z,0.90
2023-01-06T14:56:29.482Z,0.70
2023-01-06T14:59:05.076Z,0.80
2023-01-06T15:01:35.316Z,0.90
2023-01-06T15:04:05.911Z,0.70
2023-01-06T15:06:34.534Z,0.90
2023-01-06T15:09:12.826Z,0.90
2023-01-06T15:11:42.510Z,0.80
2023-01-06T15:14:25.507Z,0.80
2023-01-06T15:16:54.973Z,0.80
2023-01-06T15:19:25.242Z,0.90
2023-01-06T15:21:54.630Z,0.80
2023-01-06T15:24:24.244Z,0.90
2023-01-06T15:26:53.544Z,0.90
2023-01-06T15:29:22.830Z,1.00
2023-01-06T15:31:52.143Z,1.00
2023-01-06T15:34:21.772Z,1.10
2023-01-06T15:36:53.710Z,1.03
2023-01-06T15:39:26.882Z,1.00
2023-01-06T15:41:55.807Z,1.10
2023-01-06T15:44:28.807Z,1.00
2023-01-06T15:46:59.717Z,0.90
2023-01-06T15:49:30.286Z,1.07
2023-01-06T15:52:02.063Z,1.10
2023-01-06T15:54:31.911Z,0.90
2023-01-06T15:57:15.313Z,1.10
2023-01-06T15:59:53.582Z,1.20
2023-01-06T16:02:25.089Z,1.10
2023-01-06T16:04:54.392Z,1.10
2023-01-06T16:07:34.608Z,1.20
2023-01-06T16:10:03.235Z,1.00
2023-01-06T16:12:31.806Z,1.10
2023-01-06T16:15:00.369Z,1.10
2023-01-06T16:17:31.190Z,1.10
2023-01-06T16:20:00.946Z,1.23
2023-01-06T16:22:33.659Z,1.07
2023-01-06T16:25:03.280Z,1.00
2023-01-06T16:27:31.937Z,1.20
2023-01-06T16:30:21.260Z,1.20
2023-01-06T16:32:49.915Z,1.20
2023-01-06T16:35:20.138Z,1.67
2023-01-06T16:37:50.053Z,1.50
2023-01-06T16:40:19.379Z,1.47
2023-01-06T16:42:48.811Z,1.40
2023-01-06T16:45:23.780Z,1.20
2023-01-06T16:47:52.800Z,1.20
2023-01-06T16:50:22.725Z,1.00
2023-01-06T16:52:56.671Z,1.30
2023-01-06T16:55:25.426Z,1.20
2023-01-06T16:57:54.045Z,1.23
2023-01-06T17:00:23.607Z,1.20
2023-01-06T17:02:53.310Z,1.40
2023-01-06T17:05:26.296Z,1.23
2023-01-06T17:07:58.480Z,1.10
2023-01-06T17:10:27.530Z,1.27
2023-01-06T17:13:18.712Z,1.23
2023-01-06T17:15:47.578Z,1.20
2023-01-06T17:18:25.983Z,1.10
2023-01-06T17:20:56.257Z,1.03
2023-01-06T17:23:26.479Z,1.20
2023-01-06T17:25:59.359Z,0.90
2023-01-06T17:28:27.954Z,1.20
2023-01-06T17:30:56.635Z,0.90
2023-01-06T17:33:25.223Z,1.20
2023-01-06T17:35:56.463Z,1.00
2023-01-06T17:38:27.787Z,1.00
2023-01-06T17:40:56.824Z,1.03
2023-01-06T17:43:33.371Z,1.10
2023-01-06T17:46:03.389Z,1.30
2023-01-06T17:48:32.121Z,1.17
2023-01-06T17:51:00.704Z,1.10
2023-01-06T17:53:49.704Z,1.07
2023-01-06T17:56:20.299Z,1.17
2023-01-06T17:58:48.919Z,1.07
2023-01-06T18:01:21.541Z,1.20
2023-01-06T18:03:50.778Z,1.20
2023-01-06T18:06:21.048Z,1.10
2023-01-06T18:08:51.911Z,1.10
2023-01-06T18:11:27.983Z,1.03
2023-01-06T18:13:56.837Z,1.10
2023-01-06T18:16:28.458Z,1.00
2023-01-06T18:19:00.084Z,1.03
2023-01-06T18:21:32.090Z,1.37
2023-01-06T18:24:10.104Z,1.00
2023-01-06T18:26:40.884Z,1.00
2023-01-06T18:29:13.503Z,1.00
2023-01-06T18:31:42.558Z,1.20
2023-01-06T18:34:20.405Z,1.00
2023-01-06T18:36:49.793Z,1.03
2023-01-06T18:39:20.551Z,1.10
2023-01-06T18:41:49.220Z,1.37
2023-01-06T18:44:20.112Z,1.00
2023-01-06T18:46:50.570Z,0.90
2023-01-06T18:49:19.144Z,1.30
2023-01-06T18:51:47.682Z,1.10
2023-01-06T18:54:19.255Z,1.13
2023-01-06T18:56:49.180Z,1.00
2023-01-06T18:59:19.544Z,1.10
2023-01-06T19:01:49.331Z,1.10
2023-01-06T19:04:21.991Z,1.00
2023-01-06T19:06:52.756Z,1.10
2023-01-06T19:09:24.540Z,1.10
2023-01-06T19:11:59.553Z,0.93
2023-01-06T19:14:29.684Z,1.20
2023-01-06T19:16:59.861Z,0.97
2023-01-06T19:19:30.270Z,1.10
2023-01-06T19:22:03.264Z,1.10
2023-01-06T19:24:34.641Z,0.90
2023-01-06T19:27:04.541Z,0.90
2023-01-06T19:29:33.682Z,0.93
2023-01-06T19:32:05.339Z,1.00
2023-01-06T19:34:33.935Z,0.80
2023-01-06T19:37:02.522Z,1.00
2023-01-06T19:39:33.506Z,1.07
2023-01-06T19:42:11.821Z,1.00
2023-01-06T19:44:42.097Z,0.90
2023-01-06T19:47:17.760Z,1.00
2023-01-06T19:49:52.628Z,0.90
2023-01-06T19:52:29.778Z,1.13
2023-01-06T19:55:03.814Z,1.20
2023-01-06T19:57:37.297Z,1.23
2023-01-06T20:00:19.170Z,1.10
2023-01-06T20:02:48.275Z,1.00
2023-01-06T20:05:17.721Z,1.07
2023-01-06T20:07:46.256Z,1.20
2023-01-06T20:10:14.815Z,0.87
2023-01-06T20:12:44.599Z,0.90
2023-01-06T20:15:14.727Z,0.90
2023-01-06T20:17:43.269Z,1.00
2023-01-06T20:20:12.314Z,1.10
2023-01-06T20:22:40.949Z,1.10
2023-01-06T20:25:09.716Z,0.90
2023-01-06T20:27:38.330Z,1.10
2023-01-06T20:30:07.442Z,1.20
2023-01-06T20:32:37.410Z,1.20
2023-01-06T20:35:06.457Z,1.10
2023-01-06T20:37:35.113Z,0.90
2023-01-06T20:40:04.365Z,1.10
2023-01-06T20:42:32.958Z,0.90
2023-01-06T20:45:01.614Z,1.00
2023-01-06T20:47:30.250Z,0.90
2023-01-06T20:50:00.158Z,1.10
2023-01-06T20:52:28.789Z,0.90
2023-01-06T20:54:57.303Z,0.90
2023-01-06T20:57:25.925Z,0.97
2023-01-06T20:59:54.453Z,1.10
2023-01-06T21:02:23.199Z,0.80
2023-01-06T21:04:51.831Z,1.00
2023-01-06T21:07:21.673Z,1.10
2023-01-06T21:09:50.236Z,0.80
2023-01-06T21:12:18.861Z,1.03
2023-01-06T21:14:47.431Z,1.00
2023-01-06T21:17:16.014Z,0.80
2023-01-06T21:19:44.633Z,1.20
2023-01-06T21:22:13.285Z,0.80
2023-01-06T21:24:43.416Z,0.90
2023-01-06T21:27:11.989Z,0.97
2023-01-06T21:29:40.545Z,0.87
2023-01-06T21:32:09.134Z,1.00
2023-01-06T21:34:37.739Z,1.07
2023-01-06T21:37:06.280Z,0.90
2023-01-06T21:39:34.921Z,1.00
2023-01-06T21:42:22.409Z,0.90
2023-01-06T21:44:51.018Z,1.00
2023-01-06T21:47:19.722Z,0.90
2023-01-06T21:49:48.340Z,1.07
2023-01-06T21:52:18.200Z,0.90
2023-01-06T21:54:46.883Z,1.00
2023-01-06T21:57:16.885Z,1.00
2023-01-06T21:59:45.793Z,0.90
2023-01-06T22:02:15.671Z,1.00
2023-01-06T22:04:44.405Z,0.80
2023-01-06T22:07:13.015Z,1.10
2023-01-06T22:09:45.576Z,1.00
2023-01-06T22:12:15.130Z,0.80
2023-01-06T22:14:45.197Z,1.00
2023-01-06T22:17:13.832Z,1.00
2023-01-06T22:19:42.489Z,1.10
2023-01-06T22:22:11.295Z,1.10
2023-01-06T22:24:39.994Z,1.00
2023-01-06T22:27:08.557Z,0.90
2023-01-06T22:29:37.124Z,0.90
2023-01-06T22:32:07.650Z,1.10
2023-01-06T22:34:37.471Z,1.00
2023-01-06T22:37:06.121Z,0.97
2023-01-06T22:39:34.718Z,0.90
2023-01-06T22:42:03.484Z,1.00
2023-01-06T22:44:32.013Z,0.90
2023-01-06T22:47:00.572Z,0.90
2023-01-06T22:49:30.547Z,0.90
2023-01-06T22:51:59.142Z,0.90
2023-01-06T22:54:28.017Z,1.00
2023-01-06T22:56:56.622Z,0.90
2023-01-06T22:59:25.171Z,1.03
2023-01-06T23:01:53.839Z,1.00
2023-01-06T23:04:22.535Z,0.90
2023-01-06T23:06:52.515Z,0.90
2023-01-06T23:09:21.110Z,0.83
2023-01-06T23:11:49.677Z,1.00
2023-01-06T23:14:18.318Z,0.97
2023-01-06T23:16:47.039Z,0.90
2023-01-06T23:19:16.955Z,0.80
2023-01-06T23:21:45.870Z,0.80
2023-01-06T23:24:16.012Z,0.80
2023-01-06T23:26:45.750Z,0.90
2023-01-06T23:29:14.779Z,0.90
2023-01-06T23:31:44.743Z,0.83
2023-01-06T23:34:14.239Z,0.70
2023-01-06T23:36:42.821Z,0.67
2023-01-06T23:39:13.514Z,1.00
2023-01-06T23:41:43.463Z,0.80
2023-01-06T23:44:13.811Z,0.63
2023-01-06T23:46:42.673Z,0.70
2023-01-06T23:49:12.808Z,0.70
2023-01-06T23:51:41.511Z,0.80
2023-01-06T23:54:10.245Z,0.70
2023-01-06T23:56:39.099Z,0.87
2023-01-06T23:59:09.533Z,0.80
